CST,Max TemperatureF,Mean TemperatureF,Min TemperatureF,Max Dew PointF,MeanDew PointF,Min DewpointF,Max Humidity, Mean Humidity, Min Humidity, Max Sea Level PressureIn, Mean Sea Level PressureIn, Min Sea Level PressureIn, Max VisibilityMiles, Mean VisibilityMiles, Min VisibilityMiles, Max Wind SpeedMPH, Mean Wind SpeedMPH, Max Gust SpeedMPH,PrecipitationIn, CloudCover, Events, WindDirDegrees
2013-2-1,69,49,29,26,23,21,77,35,16,30.26,30.15,30.08,10,10,10,8,3,,0.00,0,,252
2013-2-2,65,48,32,26,22,19,63,39,20,30.36,30.27,30.14,10,10,10,13,5,16,0.00,0,,1
2013-2-3,66,49,32,39,30,24,75,54,29,30.34,30.14,29.94,10,10,7,14,3,,0.00,1,,70
2013-2-4,70,56,41,39,28,20,66,41,17,30.00,29.95,29.90,10,10,10,20,6,26,0.00,1,,290
2013-2-5,70,50,29,36,29,23,78,49,25,30.04,29.98,29.91,10,10,10,8,2,,0.00,0,,278
2013-2-6,76,54,33,34,31,28,81,52,19,29.98,29.91,29.81,10,10,10,18,5,28,0.00,0,,243
2013-2-7,67,56,45,32,28,25,53,39,21,30.18,30.04,29.92,10,10,10,15,9,20,0.00,0,,299
2013-2-8,66,49,32,35,29,26,76,54,26,30.24,30.11,29.91,10,10,10,25,7,33,0.00,0,,94
2013-2-9,80,60,41,39,30,13,77,42,9,29.91,29.77,29.59,10,9,2,34,12,44,0.00,2,,193
2013-2-10,63,50,35,18,14,9,42,26,13,30.01,29.94,29.89,10,10,10,24,16,32,0.00,0,,265
2013-2-11,68,48,27,40,23,13,66,42,23,30.03,29.94,29.82,10,10,10,22,5,28,0.00,1,,5
2013-2-12,57,44,32,40,29,21,89,56,27,30.15,30.00,29.85,10,10,10,34,12,43,0.00,1,,282
2013-2-13,61,42,22,22,15,9,76,48,13,30.16,30.09,29.98,10,10,10,16,5,20,0.00,0,,245
2013-2-14,69,46,24,18,14,10,58,31,14,30.09,30.02,29.93,10,10,10,16,7,23,0.00,0,,280
2013-2-15,50,44,38,32,28,16,73,59,29,30.42,30.29,30.09,10,10,10,17,11,18,0.00,4,,358
2013-2-16,68,45,22,27,19,12,87,48,13,30.43,30.29,30.12,10,10,10,15,5,22,0.00,0,,229
2013-2-17,73,49,25,20,15,12,58,33,11,30.12,29.95,29.79,10,10,10,12,4,,0.00,0,,176
2013-2-18,70,54,37,19,15,11,46,29,11,30.10,29.93,29.80,10,10,10,24,6,28,0.00,0,,206
2013-2-19,54,45,36,41,27,16,76,52,33,30.14,30.08,29.97,10,10,10,21,6,28,0.00,2,Rain,62
2013-2-20,76,56,35,50,38,25,90,64,15,29.99,29.69,29.40,10,10,3,17,7,23,0.00,3,,79
2013-2-21,61,50,40,32,22,17,54,38,20,29.91,29.81,29.66,10,10,7,41,27,50,0.00,1,,258
2013-2-22,64,47,30,28,20,14,69,44,16,30.05,29.97,29.91,10,10,10,22,9,30,0.00,0,,220
2013-2-23,69,50,32,24,18,14,64,34,15,30.07,29.95,29.79,10,10,10,22,8,26,0.00,0,,236
2013-2-24,78,52,26,22,16,6,64,34,9,29.78,29.69,29.48,10,10,2,34,7,45,0.00,2,,234
2013-2-25,56,44,30,29,18,9,75,38,18,30.03,29.91,29.78,10,10,7,36,22,47,0.00,1,,286
2013-2-26,69,44,20,15,11,7,63,33,11,29.98,29.88,29.75,10,10,10,21,5,26,0.00,0,,276
2013-2-27,56,43,30,22,12,3,44,30,18,30.31,30.20,30.00,10,10,10,14,7,18,0.00,0,,345
2013-2-28,57,41,25,22,15,11,66,45,18,30.35,30.29,30.23,10,10,10,9,3,,0.03,0,,261